sensor_id;sensor_type;location;lat;lon;timestamp;P1;durP1;ratioP1;P2;durP2;ratioP2
49139;SDS011;34959;49.310;8.646;2022-12-10T00:01:02;1.60;;;0.95;;
49139;SDS011;34959;49.310;8.646;2022-12-10T00:03:41;1.30;;;0.80;;
49139;SDS011;34959;49.310;8.646;2022-12-10T00:06:09;1.45;;;0.98;;
49139;SDS011;34959;49.310;8.646;2022-12-10T00:08:36;2.47;;;0.95;;
49139;SDS011;34959;49.310;8.646;2022-12-10T00:11:02;1.70;;;0.80;;
49139;SDS011;34959;49.310;8.646;2022-12-10T00:13:28;1.27;;;0.85;;
49139;SDS011;34959;49.310;8.646;2022-12-10T00:15:54;1.17;;;0.80;;
49139;SDS011;34959;49.310;8.646;2022-12-10T00:18:19;0.73;;;0.60;;
49139;SDS011;34959;49.310;8.646;2022-12-10T00:20:45;1.30;;;0.70;;
49139;SDS011;34959;49.310;8.646;2022-12-10T00:23:10;1.13;;;0.70;;
49139;SDS011;34959;49.310;8.646;2022-12-10T00:25:36;1.50;;;0.85;;
49139;SDS011;34959;49.310;8.646;2022-12-10T00:28:01;1.83;;;0.85;;
49139;SDS011;34959;49.310;8.646;2022-12-10T00:30:26;1.30;;;0.70;;
49139;SDS011;34959;49.310;8.646;2022-12-10T00:32:52;3.63;;;1.02;;
49139;SDS011;34959;49.310;8.646;2022-12-10T00:35:17;1.38;;;0.80;;
49139;SDS011;34959;49.310;8.646;2022-12-10T00:37:43;2.40;;;1.00;;
49139;SDS011;34959;49.310;8.646;2022-12-10T00:40:08;2.72;;;0.82;;
49139;SDS011;34959;49.310;8.646;2022-12-10T00:42:35;1.13;;;0.70;;
49139;SDS011;34959;49.310;8.646;2022-12-10T00:45:01;2.35;;;0.80;;
49139;SDS011;34959;49.310;8.646;2022-12-10T00:47:26;1.73;;;0.80;;
49139;SDS011;34959;49.310;8.646;2022-12-10T00:49:52;3.42;;;0.80;;
49139;SDS011;34959;49.310;8.646;2022-12-10T00:52:17;1.27;;;0.80;;
49139;SDS011;34959;49.310;8.646;2022-12-10T00:54:43;3.33;;;0.70;;
49139;SDS011;34959;49.310;8.646;2022-12-10T00:57:11;5.57;;;1.00;;
49139;SDS011;34959;49.310;8.646;2022-12-10T00:59:36;4.22;;;0.80;;
49139;SDS011;34959;49.310;8.646;2022-12-10T01:02:02;7.10;;;0.93;;
49139;SDS011;34959;49.310;8.646;2022-12-10T01:04:27;2.08;;;0.63;;
49139;SDS011;34959;49.310;8.646;2022-12-10T01:06:53;1.60;;;0.80;;
49139;SDS011;34959;49.310;8.646;2022-12-10T01:09:20;0.85;;;0.55;;
49139;SDS011;34959;49.310;8.646;2022-12-10T01:11:48;2.50;;;0.90;;
49139;SDS011;34959;49.310;8.646;2022-12-10T01:14:15;1.40;;;1.00;;
49139;SDS011;34959;49.310;8.646;2022-12-10T01:16:43;1.45;;;0.80;;
49139;SDS011;34959;49.310;8.646;2022-12-10T01:19:09;1.30;;;0.75;;
49139;SDS011;34959;49.310;8.646;2022-12-10T01:21:35;2.08;;;0.88;;
49139;SDS011;34959;49.310;8.646;2022-12-10T01:24:01;6.90;;;1.30;;
49139;SDS011;34959;49.310;8.646;2022-12-10T01:26:28;7.75;;;1.80;;
49139;SDS011;34959;49.310;8.646;2022-12-10T01:28:55;9.45;;;1.30;;
49139;SDS011;34959;49.310;8.646;2022-12-10T01:31:21;4.55;;;1.17;;
49139;SDS011;34959;49.310;8.646;2022-12-10T01:33:54;1.88;;;1.10;;
49139;SDS011;34959;49.310;8.646;2022-12-10T01:36:22;4.20;;;0.90;;
49139;SDS011;34959;49.310;8.646;2022-12-10T01:38:49;2.03;;;0.93;;
49139;SDS011;34959;49.310;8.646;2022-12-10T01:41:16;5.13;;;1.10;;
49139;SDS011;34959;49.310;8.646;2022-12-10T01:43:54;3.40;;;1.17;;
49139;SDS011;34959;49.310;8.646;2022-12-10T01:46:19;5.43;;;1.17;;
49139;SDS011;34959;49.310;8.646;2022-12-10T01:48:45;1.85;;;1.00;;
49139;SDS011;34959;49.310;8.646;2022-12-10T01:51:11;2.47;;;1.30;;
49139;SDS011;34959;49.310;8.646;2022-12-10T01:53:38;1.40;;;0.85;;
49139;SDS011;34959;49.310;8.646;2022-12-10T01:56:03;1.10;;;0.80;;
49139;SDS011;34959;49.310;8.646;2022-12-10T01:58:29;2.83;;;1.30;;
49139;SDS011;34959;49.310;8.646;2022-12-10T02:01:08;2.85;;;1.20;;
49139;SDS011;34959;49.310;8.646;2022-12-10T02:06:25;1.48;;;0.98;;
49139;SDS011;34959;49.310;8.646;2022-12-10T02:11:40;1.80;;;1.00;;
49139;SDS011;34959;49.310;8.646;2022-12-10T02:14:28;1.60;;;1.05;;
49139;SDS011;34959;49.310;8.646;2022-12-10T02:16:59;1.48;;;0.98;;
49139;SDS011;34959;49.310;8.646;2022-12-10T02:22:04;1.77;;;1.00;;
49139;SDS011;34959;49.310;8.646;2022-12-10T02:24:30;3.13;;;1.25;;
49139;SDS011;34959;49.310;8.646;2022-12-10T02:27:03;1.55;;;1.13;;
49139;SDS011;34959;49.310;8.646;2022-12-10T02:29:31;3.42;;;1.00;;
49139;SDS011;34959;49.310;8.646;2022-12-10T02:32:11;1.48;;;1.05;;
49139;SDS011;34959;49.310;8.646;2022-12-10T02:34:40;2.22;;;1.10;;
49139;SDS011;34959;49.310;8.646;2022-12-10T02:37:08;3.47;;;1.20;;
49139;SDS011;34959;49.310;8.646;2022-12-10T02:39:40;2.63;;;0.82;;
49139;SDS011;34959;49.310;8.646;2022-12-10T02:42:08;1.75;;;1.10;;
49139;SDS011;34959;49.310;8.646;2022-12-10T02:44:36;2.25;;;1.25;;
49139;SDS011;34959;49.310;8.646;2022-12-10T02:47:03;3.60;;;1.10;;
49139;SDS011;34959;49.310;8.646;2022-12-10T02:49:28;1.77;;;1.27;;
49139;SDS011;34959;49.310;8.646;2022-12-10T02:51:55;1.40;;;0.90;;
49139;SDS011;34959;49.310;8.646;2022-12-10T02:54:40;1.77;;;1.30;;
49139;SDS011;34959;49.310;8.646;2022-12-10T02:57:14;2.20;;;1.20;;
49139;SDS011;34959;49.310;8.646;2022-12-10T03:02:36;1.20;;;1.10;;
49139;SDS011;34959;49.310;8.646;2022-12-10T03:05:09;3.58;;;1.17;;
49139;SDS011;34959;49.310;8.646;2022-12-10T03:07:47;1.33;;;1.20;;
49139;SDS011;34959;49.310;8.646;2022-12-10T03:13:00;1.90;;;1.20;;
49139;SDS011;34959;49.310;8.646;2022-12-10T03:15:30;2.05;;;1.27;;
49139;SDS011;34959;49.310;8.646;2022-12-10T03:17:59;2.03;;;1.20;;
49139;SDS011;34959;49.310;8.646;2022-12-10T03:20:26;4.35;;;1.20;;
49139;SDS011;34959;49.310;8.646;2022-12-10T03:22:52;9.23;;;1.67;;
49139;SDS011;34959;49.310;8.646;2022-12-10T03:25:19;5.25;;;1.52;;
49139;SDS011;34959;49.310;8.646;2022-12-10T03:27:48;2.58;;;1.42;;
49139;SDS011;34959;49.310;8.646;2022-12-10T03:30:16;2.47;;;1.27;;
49139;SDS011;34959;49.310;8.646;2022-12-10T03:32:42;1.85;;;1.30;;
49139;SDS011;34959;49.310;8.646;2022-12-10T03:35:08;6.57;;;1.38;;
49139;SDS011;34959;49.310;8.646;2022-12-10T03:37:34;6.80;;;1.33;;
49139;SDS011;34959;49.310;8.646;2022-12-10T03:39:59;1.80;;;1.20;;
49139;SDS011;34959;49.310;8.646;2022-12-10T03:42:25;3.45;;;1.23;;
49139;SDS011;34959;49.310;8.646;2022-12-10T03:44:51;2.17;;;1.50;;
49139;SDS011;34959;49.310;8.646;2022-12-10T03:47:16;1.90;;;1.20;;
49139;SDS011;34959;49.310;8.646;2022-12-10T03:49:42;2.38;;;1.02;;
49139;SDS011;34959;49.310;8.646;2022-12-10T03:52:08;1.55;;;1.10;;
49139;SDS011;34959;49.310;8.646;2022-12-10T03:54:34;3.92;;;1.20;;
49139;SDS011;34959;49.310;8.646;2022-12-10T03:56:59;1.90;;;1.42;;
49139;SDS011;34959;49.310;8.646;2022-12-10T03:59:25;1.73;;;1.35;;
49139;SDS011;34959;49.310;8.646;2022-12-10T04:01:50;2.55;;;1.08;;
49139;SDS011;34959;49.310;8.646;2022-12-10T04:04:15;2.25;;;1.20;;
49139;SDS011;34959;49.310;8.646;2022-12-10T04:06:41;2.38;;;1.33;;
49139;SDS011;34959;49.310;8.646;2022-12-10T04:09:10;2.05;;;1.10;;
49139;SDS011;34959;49.310;8.646;2022-12-10T04:11:36;2.25;;;1.17;;
49139;SDS011;34959;49.310;8.646;2022-12-10T04:14:02;1.13;;;1.02;;
49139;SDS011;34959;49.310;8.646;2022-12-10T04:16:46;3.35;;;1.15;;
49139;SDS011;34959;49.310;8.646;2022-12-10T04:19:12;1.80;;;1.27;;
49139;SDS011;34959;49.310;8.646;2022-12-10T04:21:40;1.58;;;1.20;;
49139;SDS011;34959;49.310;8.646;2022-12-10T04:24:26;2.67;;;1.42;;
49139;SDS011;34959;49.310;8.646;2022-12-10T04:27:12;1.70;;;1.17;;
49139;SDS011;34959;49.310;8.646;2022-12-10T04:29:44;2.90;;;1.13;;
49139;SDS011;34959;49.310;8.646;2022-12-10T04:32:09;3.17;;;1.48;;
49139;SDS011;34959;49.310;8.646;2022-12-10T04:34:38;2.65;;;1.20;;
49139;SDS011;34959;49.310;8.646;2022-12-10T04:37:03;1.95;;;1.40;;
49139;SDS011;34959;49.310;8.646;2022-12-10T04:39:29;1.70;;;1.15;;
49139;SDS011;34959;49.310;8.646;2022-12-10T04:41:55;1.52;;;1.10;;
49139;SDS011;34959;49.310;8.646;2022-12-10T04:44:20;2.42;;;1.15;;
49139;SDS011;34959;49.310;8.646;2022-12-10T04:46:46;2.08;;;1.20;;
49139;SDS011;34959;49.310;8.646;2022-12-10T04:49:12;1.50;;;1.17;;
49139;SDS011;34959;49.310;8.646;2022-12-10T04:51:38;2.55;;;1.13;;
49139;SDS011;34959;49.310;8.646;2022-12-10T04:54:04;2.33;;;1.10;;
49139;SDS011;34959;49.310;8.646;2022-12-10T04:56:29;2.75;;;1.10;;
49139;SDS011;34959;49.310;8.646;2022-12-10T04:58:58;2.28;;;1.40;;
49139;SDS011;34959;49.310;8.646;2022-12-10T05:01:24;1.90;;;1.38;;
49139;SDS011;34959;49.310;8.646;2022-12-10T05:03:50;2.03;;;1.20;;
49139;SDS011;34959;49.310;8.646;2022-12-10T05:06:16;2.03;;;1.40;;
49139;SDS011;34959;49.310;8.646;2022-12-10T05:08:42;2.35;;;1.30;;
49139;SDS011;34959;49.310;8.646;2022-12-10T05:11:15;1.83;;;1.30;;
49139;SDS011;34959;49.310;8.646;2022-12-10T05:13:42;3.50;;;1.20;;
49139;SDS011;34959;49.310;8.646;2022-12-10T05:16:09;4.15;;;1.30;;
49139;SDS011;34959;49.310;8.646;2022-12-10T05:18:36;1.73;;;1.30;;
49139;SDS011;34959;49.310;8.646;2022-12-10T05:21:03;1.63;;;1.20;;
49139;SDS011;34959;49.310;8.646;2022-12-10T05:23:30;1.50;;;1.10;;
49139;SDS011;34959;49.310;8.646;2022-12-10T05:26:03;1.42;;;1.10;;
49139;SDS011;34959;49.310;8.646;2022-12-10T05:28:43;1.52;;;1.20;;
49139;SDS011;34959;49.310;8.646;2022-12-10T05:31:14;1.58;;;1.20;;
49139;SDS011;34959;49.310;8.646;2022-12-10T05:33:42;2.45;;;1.23;;
49139;SDS011;34959;49.310;8.646;2022-12-10T05:36:09;1.80;;;1.17;;
49139;SDS011;34959;49.310;8.646;2022-12-10T05:38:36;1.65;;;1.17;;
49139;SDS011;34959;49.310;8.646;2022-12-10T05:41:05;1.50;;;1.13;;
49139;SDS011;34959;49.310;8.646;2022-12-10T05:43:32;2.25;;;1.40;;
49139;SDS011;34959;49.310;8.646;2022-12-10T05:45:59;2.83;;;1.15;;
49139;SDS011;34959;49.310;8.646;2022-12-10T05:48:25;2.00;;;1.13;;
49139;SDS011;34959;49.310;8.646;2022-12-10T05:50:51;2.00;;;1.48;;
49139;SDS011;34959;49.310;8.646;2022-12-10T05:53:16;3.00;;;1.20;;
49139;SDS011;34959;49.310;8.646;2022-12-10T05:55:43;2.78;;;1.50;;
49139;SDS011;34959;49.310;8.646;2022-12-10T05:58:09;1.98;;;1.15;;
49139;SDS011;34959;49.310;8.646;2022-12-10T06:00:34;1.77;;;1.30;;
49139;SDS011;34959;49.310;8.646;2022-12-10T06:03:00;1.85;;;1.17;;
49139;SDS011;34959;49.310;8.646;2022-12-10T06:05:25;3.33;;;1.42;;
49139;SDS011;34959;49.310;8.646;2022-12-10T06:07:51;2.17;;;1.35;;
49139;SDS011;34959;49.310;8.646;2022-12-10T06:10:16;1.92;;;1.10;;
49139;SDS011;34959;49.310;8.646;2022-12-10T06:12:42;3.03;;;1.50;;
49139;SDS011;34959;49.310;8.646;2022-12-10T06:15:07;1.85;;;1.10;;
49139;SDS011;34959;49.310;8.646;2022-12-10T06:17:36;1.90;;;1.27;;
49139;SDS011;34959;49.310;8.646;2022-12-10T06:20:01;1.80;;;1.40;;
49139;SDS011;34959;49.310;8.646;2022-12-10T06:22:27;2.15;;;1.40;;
49139;SDS011;34959;49.310;8.646;2022-12-10T06:24:52;1.63;;;1.02;;
49139;SDS011;34959;49.310;8.646;2022-12-10T06:27:17;2.08;;;1.42;;
49139;SDS011;34959;49.310;8.646;2022-12-10T06:29:44;1.92;;;1.42;;
49139;SDS011;34959;49.310;8.646;2022-12-10T06:32:09;2.20;;;1.35;;
49139;SDS011;34959;49.310;8.646;2022-12-10T06:34:35;3.00;;;1.25;;
49139;SDS011;34959;49.310;8.646;2022-12-10T06:37:00;2.00;;;1.40;;
49139;SDS011;34959;49.310;8.646;2022-12-10T06:39:25;1.50;;;1.20;;
49139;SDS011;34959;49.310;8.646;2022-12-10T06:41:51;2.13;;;1.35;;
49139;SDS011;34959;49.310;8.646;2022-12-10T06:44:16;1.98;;;1.25;;
49139;SDS011;34959;49.310;8.646;2022-12-10T06:46:41;2.70;;;1.20;;
49139;SDS011;34959;49.310;8.646;2022-12-10T06:49:07;3.38;;;1.42;;
49139;SDS011;34959;49.310;8.646;2022-12-10T06:51:33;1.75;;;1.30;;
49139;SDS011;34959;49.310;8.646;2022-12-10T06:53:58;1.42;;;1.15;;
49139;SDS011;34959;49.310;8.646;2022-12-10T06:56:23;1.50;;;1.30;;
49139;SDS011;34959;49.310;8.646;2022-12-10T06:58:49;1.88;;;1.40;;
49139;SDS011;34959;49.310;8.646;2022-12-10T07:03:52;2.35;;;1.40;;
49139;SDS011;34959;49.310;8.646;2022-12-10T07:06:20;1.35;;;1.10;;
49139;SDS011;34959;49.310;8.646;2022-12-10T07:08:45;2.05;;;1.20;;
49139;SDS011;34959;49.310;8.646;2022-12-10T07:11:12;1.20;;;1.10;;
49139;SDS011;34959;49.310;8.646;2022-12-10T07:13:39;1.85;;;1.10;;
49139;SDS011;34959;49.310;8.646;2022-12-10T07:16:12;2.70;;;1.45;;
49139;SDS011;34959;49.310;8.646;2022-12-10T07:18:39;1.67;;;1.25;;
49139;SDS011;34959;49.310;8.646;2022-12-10T07:21:14;1.73;;;1.33;;
49139;SDS011;34959;49.310;8.646;2022-12-10T07:23:47;2.83;;;1.05;;
49139;SDS011;34959;49.310;8.646;2022-12-10T07:26:13;2.67;;;1.20;;
49139;SDS011;34959;49.310;8.646;2022-12-10T07:28:39;2.85;;;1.23;;
49139;SDS011;34959;49.310;8.646;2022-12-10T07:31:05;6.28;;;1.73;;
49139;SDS011;34959;49.310;8.646;2022-12-10T07:33:31;2.05;;;0.90;;
49139;SDS011;34959;49.310;8.646;2022-12-10T07:35:57;1.73;;;1.17;;
49139;SDS011;34959;49.310;8.646;2022-12-10T07:38:23;3.05;;;1.20;;
49139;SDS011;34959;49.310;8.646;2022-12-10T07:40:49;1.30;;;1.08;;
49139;SDS011;34959;49.310;8.646;2022-12-10T07:43:15;1.52;;;1.10;;
49139;SDS011;34959;49.310;8.646;2022-12-10T07:45:40;3.20;;;1.20;;
49139;SDS011;34959;49.310;8.646;2022-12-10T07:48:05;1.55;;;1.20;;
49139;SDS011;34959;49.310;8.646;2022-12-10T07:50:31;4.45;;;1.77;;
49139;SDS011;34959;49.310;8.646;2022-12-10T07:52:56;3.50;;;1.35;;
49139;SDS011;34959;49.310;8.646;2022-12-10T07:55:22;2.75;;;1.30;;
49139;SDS011;34959;49.310;8.646;2022-12-10T07:57:47;1.65;;;1.10;;
49139;SDS011;34959;49.310;8.646;2022-12-10T08:00:12;2.80;;;1.08;;
49139;SDS011;34959;49.310;8.646;2022-12-10T08:02:38;2.88;;;1.30;;
49139;SDS011;34959;49.310;8.646;2022-12-10T08:05:03;1.50;;;1.25;;
49139;SDS011;34959;49.310;8.646;2022-12-10T08:07:29;1.45;;;1.08;;
49139;SDS011;34959;49.310;8.646;2022-12-10T08:09:54;1.42;;;1.10;;
49139;SDS011;34959;49.310;8.646;2022-12-10T08:12:20;3.00;;;1.30;;
49139;SDS011;34959;49.310;8.646;2022-12-10T08:14:45;1.40;;;1.10;;
49139;SDS011;34959;49.310;8.646;2022-12-10T08:17:11;2.10;;;1.23;;
49139;SDS011;34959;49.310;8.646;2022-12-10T08:19:36;2.15;;;1.23;;
49139;SDS011;34959;49.310;8.646;2022-12-10T08:22:01;3.00;;;1.40;;
49139;SDS011;34959;49.310;8.646;2022-12-10T08:24:27;3.95;;;1.00;;
49139;SDS011;34959;49.310;8.646;2022-12-10T08:26:52;1.35;;;1.10;;
49139;SDS011;34959;49.310;8.646;2022-12-10T08:29:17;2.30;;;1.10;;
49139;SDS011;34959;49.310;8.646;2022-12-10T08:31:43;1.88;;;1.25;;
49139;SDS011;34959;49.310;8.646;2022-12-10T08:34:10;1.38;;;1.15;;
49139;SDS011;34959;49.310;8.646;2022-12-10T08:36:40;2.83;;;1.08;;
49139;SDS011;34959;49.310;8.646;2022-12-10T08:39:06;2.53;;;1.20;;
49139;SDS011;34959;49.310;8.646;2022-12-10T08:41:31;2.28;;;1.40;;
49139;SDS011;34959;49.310;8.646;2022-12-10T08:43:57;1.70;;;1.38;;
49139;SDS011;34959;49.310;8.646;2022-12-10T08:46:23;2.17;;;1.33;;
49139;SDS011;34959;49.310;8.646;2022-12-10T08:48:50;1.52;;;1.30;;
49139;SDS011;34959;49.310;8.646;2022-12-10T08:51:17;1.75;;;1.20;;
49139;SDS011;34959;49.310;8.646;2022-12-10T08:53:43;1.42;;;1.10;;
49139;SDS011;34959;49.310;8.646;2022-12-10T08:56:09;4.60;;;1.30;;
49139;SDS011;34959;49.310;8.646;2022-12-10T08:58:36;2.65;;;1.60;;
49139;SDS011;34959;49.310;8.646;2022-12-10T09:01:05;2.83;;;1.27;;
49139;SDS011;34959;49.310;8.646;2022-12-10T09:03:31;2.58;;;1.40;;
49139;SDS011;34959;49.310;8.646;2022-12-10T09:06:00;1.33;;;0.93;;
49139;SDS011;34959;49.310;8.646;2022-12-10T09:08:27;3.47;;;1.30;;
49139;SDS011;34959;49.310;8.646;2022-12-10T09:10:52;2.75;;;1.60;;
49139;SDS011;34959;49.310;8.646;2022-12-10T09:13:17;4.45;;;1.42;;
49139;SDS011;34959;49.310;8.646;2022-12-10T09:15:48;2.67;;;1.17;;
49139;SDS011;34959;49.310;8.646;2022-12-10T09:20:40;3.20;;;1.42;;
49139;SDS011;34959;49.310;8.646;2022-12-10T09:23:06;3.17;;;1.50;;
49139;SDS011;34959;49.310;8.646;2022-12-10T09:25:31;3.95;;;1.38;;
49139;SDS011;34959;49.310;8.646;2022-12-10T09:27:56;2.90;;;1.30;;
49139;SDS011;34959;49.310;8.646;2022-12-10T09:30:22;2.00;;;1.23;;
49139;SDS011;34959;49.310;8.646;2022-12-10T09:32:47;3.40;;;1.33;;
49139;SDS011;34959;49.310;8.646;2022-12-10T09:35:13;5.55;;;1.60;;
49139;SDS011;34959;49.310;8.646;2022-12-10T09:37:38;5.03;;;2.17;;
49139;SDS011;34959;49.310;8.646;2022-12-10T09:40:04;5.32;;;1.70;;
49139;SDS011;34959;49.310;8.646;2022-12-10T09:45:21;3.92;;;1.58;;
49139;SDS011;34959;49.310;8.646;2022-12-10T09:50:35;3.17;;;1.60;;
49139;SDS011;34959;49.310;8.646;2022-12-10T09:53:09;3.83;;;1.75;;
49139;SDS011;34959;49.310;8.646;2022-12-10T09:55:40;2.40;;;1.65;;
49139;SDS011;34959;49.310;8.646;2022-12-10T09:58:09;2.38;;;1.50;;
49139;SDS011;34959;49.310;8.646;2022-12-10T10:00:44;2.60;;;1.70;;
49139;SDS011;34959;49.310;8.646;2022-12-10T10:03:12;3.30;;;1.77;;
49139;SDS011;34959;49.310;8.646;2022-12-10T10:05:40;2.33;;;1.50;;
49139;SDS011;34959;49.310;8.646;2022-12-10T10:08:11;6.05;;;1.95;;
49139;SDS011;34959;49.310;8.646;2022-12-10T10:15:33;7.18;;;2.22;;
49139;SDS011;34959;49.310;8.646;2022-12-10T10:18:24;11.57;;;8.80;;
49139;SDS011;34959;49.310;8.646;2022-12-10T10:20:58;10.18;;;8.90;;
49139;SDS011;34959;49.310;8.646;2022-12-10T10:23:24;7.43;;;4.22;;
49139;SDS011;34959;49.310;8.646;2022-12-10T10:25:50;6.68;;;3.80;;
49139;SDS011;34959;49.310;8.646;2022-12-10T10:28:20;5.47;;;2.95;;
49139;SDS011;34959;49.310;8.646;2022-12-10T10:30:47;5.93;;;2.83;;
49139;SDS011;34959;49.310;8.646;2022-12-10T10:33:14;5.07;;;2.67;;
49139;SDS011;34959;49.310;8.646;2022-12-10T10:40:51;5.32;;;2.28;;
49139;SDS011;34959;49.310;8.646;2022-12-10T10:43:20;2.75;;;2.15;;
49139;SDS011;34959;49.310;8.646;2022-12-10T10:45:56;4.07;;;2.00;;
49139;SDS011;34959;49.310;8.646;2022-12-10T10:48:25;5.30;;;1.85;;
49139;SDS011;34959;49.310;8.646;2022-12-10T10:50:56;3.85;;;2.28;;
49139;SDS011;34959;49.310;8.646;2022-12-10T10:53:42;3.88;;;1.90;;
49139;SDS011;34959;49.310;8.646;2022-12-10T10:58:47;3.60;;;1.90;;
49139;SDS011;34959;49.310;8.646;2022-12-10T11:01:12;4.25;;;1.90;;
49139;SDS011;34959;49.310;8.646;2022-12-10T11:03:44;4.55;;;1.95;;
49139;SDS011;34959;49.310;8.646;2022-12-10T11:06:14;3.15;;;1.90;;
49139;SDS011;34959;49.310;8.646;2022-12-10T11:08:40;3.03;;;1.73;;
49139;SDS011;34959;49.310;8.646;2022-12-10T11:11:11;2.78;;;1.77;;
49139;SDS011;34959;49.310;8.646;2022-12-10T11:13:39;4.90;;;1.70;;
49139;SDS011;34959;49.310;8.646;2022-12-10T11:19:02;14.18;;;11.82;;
49139;SDS011;34959;49.310;8.646;2022-12-10T11:21:33;12.00;;;10.68;;
49139;SDS011;34959;49.310;8.646;2022-12-10T11:23:59;24.25;;;9.23;;
49139;SDS011;34959;49.310;8.646;2022-12-10T11:29:49;10.25;;;5.45;;
49139;SDS011;34959;49.310;8.646;2022-12-10T11:32:34;8.13;;;5.25;;
49139;SDS011;34959;49.310;8.646;2022-12-10T11:38:23;6.80;;;3.63;;
49139;SDS011;34959;49.310;8.646;2022-12-10T11:41:56;4.00;;;3.60;;
49139;SDS011;34959;49.310;8.646;2022-12-10T11:44:06;6.10;;;3.10;;
49139;SDS011;34959;49.310;8.646;2022-12-10T11:57:01;3.87;;;2.67;;
49139;SDS011;34959;49.310;8.646;2022-12-10T11:59:34;4.97;;;2.22;;
49139;SDS011;34959;49.310;8.646;2022-12-10T12:02:37;2.85;;;2.40;;
49139;SDS011;34959;49.310;8.646;2022-12-10T12:06:01;3.05;;;2.20;;
49139;SDS011;34959;49.310;8.646;2022-12-10T12:11:11;2.17;;;1.83;;
49139;SDS011;34959;49.310;8.646;2022-12-10T12:13:57;2.35;;;1.90;;
49139;SDS011;34959;49.310;8.646;2022-12-10T12:16:29;2.22;;;1.73;;
49139;SDS011;34959;49.310;8.646;2022-12-10T12:19:10;3.03;;;1.70;;
49139;SDS011;34959;49.310;8.646;2022-12-10T12:24:28;2.80;;;1.97;;
49139;SDS011;34959;49.310;8.646;2022-12-10T12:27:10;2.20;;;1.70;;
49139;SDS011;34959;49.310;8.646;2022-12-10T12:29:41;2.20;;;1.77;;
49139;SDS011;34959;49.310;8.646;2022-12-10T12:32:18;3.28;;;1.80;;
49139;SDS011;34959;49.310;8.646;2022-12-10T12:37:44;1.92;;;1.65;;
49139;SDS011;34959;49.310;8.646;2022-12-10T12:43:02;3.25;;;2.00;;
49139;SDS011;34959;49.310;8.646;2022-12-10T12:45:39;2.60;;;1.40;;
49139;SDS011;34959;49.310;8.646;2022-12-10T12:50:42;3.38;;;1.65;;
49139;SDS011;34959;49.310;8.646;2022-12-10T12:53:09;2.38;;;1.70;;
49139;SDS011;34959;49.310;8.646;2022-12-10T13:03:47;2.10;;;1.52;;
49139;SDS011;34959;49.310;8.646;2022-12-10T13:06:24;2.13;;;1.55;;
49139;SDS011;34959;49.310;8.646;2022-12-10T13:27:54;2.30;;;1.33;;
49139;SDS011;34959;49.310;8.646;2022-12-10T13:33:09;2.72;;;1.50;;
49139;SDS011;34959;49.310;8.646;2022-12-10T13:35:55;3.55;;;1.42;;
49139;SDS011;34959;49.310;8.646;2022-12-10T13:38:23;1.60;;;1.27;;
49139;SDS011;34959;49.310;8.646;2022-12-10T13:40:58;1.88;;;1.33;;
49139;SDS011;34959;49.310;8.646;2022-12-10T13:43:57;2.45;;;1.30;;
49139;SDS011;34959;49.310;8.646;2022-12-10T13:49:22;1.85;;;1.67;;
49139;SDS011;34959;49.310;8.646;2022-12-10T13:57:01;1.40;;;1.27;;
49139;SDS011;34959;49.310;8.646;2022-12-10T14:07:18;1.90;;;1.40;;
49139;SDS011;34959;49.310;8.646;2022-12-10T14:09:51;1.95;;;1.33;;
49139;SDS011;34959;49.310;8.646;2022-12-10T14:12:35;1.40;;;1.23;;
49139;SDS011;34959;49.310;8.646;2022-12-10T14:15:03;1.85;;;1.48;;
49139;SDS011;34959;49.310;8.646;2022-12-10T14:17:32;2.10;;;1.27;;
49139;SDS011;34959;49.310;8.646;2022-12-10T14:19:59;1.63;;;1.40;;
49139;SDS011;34959;49.310;8.646;2022-12-10T14:22:33;1.50;;;1.30;;
49139;SDS011;34959;49.310;8.646;2022-12-10T14:25:01;1.65;;;1.17;;
49139;SDS011;34959;49.310;8.646;2022-12-10T14:27:31;1.40;;;1.17;;
49139;SDS011;34959;49.310;8.646;2022-12-10T14:29:58;1.58;;;1.20;;
49139;SDS011;34959;49.310;8.646;2022-12-10T14:32:25;1.85;;;1.20;;
49139;SDS011;34959;49.310;8.646;2022-12-10T14:34:55;1.40;;;1.15;;
49139;SDS011;34959;49.310;8.646;2022-12-10T14:37:26;1.60;;;1.35;;
49139;SDS011;34959;49.310;8.646;2022-12-10T14:39:53;1.83;;;1.40;;
49139;SDS011;34959;49.310;8.646;2022-12-10T14:42:19;1.30;;;1.20;;
49139;SDS011;34959;49.310;8.646;2022-12-10T14:44:44;1.63;;;1.33;;
49139;SDS011;34959;49.310;8.646;2022-12-10T14:47:14;2.25;;;1.20;;
49139;SDS011;34959;49.310;8.646;2022-12-10T14:49:43;1.65;;;1.20;;
49139;SDS011;34959;49.310;8.646;2022-12-10T14:54:39;2.08;;;1.20;;
49139;SDS011;34959;49.310;8.646;2022-12-10T14:57:05;2.97;;;1.30;;
49139;SDS011;34959;49.310;8.646;2022-12-10T15:00:06;3.50;;;1.13;;
49139;SDS011;34959;49.310;8.646;2022-12-10T15:02:28;1.50;;;1.20;;
49139;SDS011;34959;49.310;8.646;2022-12-10T15:04:55;4.38;;;1.25;;
49139;SDS011;34959;49.310;8.646;2022-12-10T15:07:25;4.88;;;1.40;;
49139;SDS011;34959;49.310;8.646;2022-12-10T15:09:52;4.13;;;1.33;;
49139;SDS011;34959;49.310;8.646;2022-12-10T15:12:20;4.43;;;1.77;;
49139;SDS011;34959;49.310;8.646;2022-12-10T15:14:59;2.70;;;1.48;;
49139;SDS011;34959;49.310;8.646;2022-12-10T15:18:14;2.13;;;1.40;;
49139;SDS011;34959;49.310;8.646;2022-12-10T15:20:45;2.95;;;1.20;;
49139;SDS011;34959;49.310;8.646;2022-12-10T15:30:47;4.15;;;1.30;;
49139;SDS011;34959;49.310;8.646;2022-12-10T15:33:33;7.80;;;1.30;;
49139;SDS011;34959;49.310;8.646;2022-12-10T15:36:01;5.25;;;1.23;;
49139;SDS011;34959;49.310;8.646;2022-12-10T15:38:30;3.20;;;1.30;;
49139;SDS011;34959;49.310;8.646;2022-12-10T15:40:56;3.03;;;1.23;;
49139;SDS011;34959;49.310;8.646;2022-12-10T15:43:25;9.30;;;7.65;;
49139;SDS011;34959;49.310;8.646;2022-12-10T15:45:55;9.80;;;8.60;;
49139;SDS011;34959;49.310;8.646;2022-12-10T15:48:21;10.55;;;9.05;;
49139;SDS011;34959;49.310;8.646;2022-12-10T15:50:49;9.38;;;8.00;;
49139;SDS011;34959;49.310;8.646;2022-12-10T15:53:17;4.80;;;2.55;;
49139;SDS011;34959;49.310;8.646;2022-12-10T15:55:50;4.20;;;2.42;;
49139;SDS011;34959;49.310;8.646;2022-12-10T15:58:16;2.65;;;2.03;;
49139;SDS011;34959;49.310;8.646;2022-12-10T16:00:41;2.42;;;1.95;;
49139;SDS011;34959;49.310;8.646;2022-12-10T16:03:09;4.82;;;1.90;;
49139;SDS011;34959;49.310;8.646;2022-12-10T16:05:37;3.17;;;1.80;;
49139;SDS011;34959;49.310;8.646;2022-12-10T16:08:09;2.88;;;1.60;;
49139;SDS011;34959;49.310;8.646;2022-12-10T16:10:39;1.90;;;1.38;;
49139;SDS011;34959;49.310;8.646;2022-12-10T16:13:12;1.92;;;1.38;;
49139;SDS011;34959;49.310;8.646;2022-12-10T16:15:42;2.55;;;1.48;;
49139;SDS011;34959;49.310;8.646;2022-12-10T16:18:18;1.83;;;1.42;;
49139;SDS011;34959;49.310;8.646;2022-12-10T16:20:44;2.10;;;1.52;;
49139;SDS011;34959;49.310;8.646;2022-12-10T16:23:09;2.58;;;1.58;;
49139;SDS011;34959;49.310;8.646;2022-12-10T16:25:35;2.63;;;1.42;;
49139;SDS011;34959;49.310;8.646;2022-12-10T16:28:02;2.47;;;1.42;;
49139;SDS011;34959;49.310;8.646;2022-12-10T16:30:35;1.55;;;1.27;;
49139;SDS011;34959;49.310;8.646;2022-12-10T16:33:02;3.00;;;1.33;;
49139;SDS011;34959;49.310;8.646;2022-12-10T16:35:28;1.98;;;1.30;;
49139;SDS011;34959;49.310;8.646;2022-12-10T16:37:54;1.83;;;1.40;;
49139;SDS011;34959;49.310;8.646;2022-12-10T16:40:20;3.47;;;1.40;;
49139;SDS011;34959;49.310;8.646;2022-12-10T16:42:47;2.40;;;1.30;;
49139;SDS011;34959;49.310;8.646;2022-12-10T16:47:47;3.60;;;1.40;;
49139;SDS011;34959;49.310;8.646;2022-12-10T16:50:13;1.25;;;1.10;;
49139;SDS011;34959;49.310;8.646;2022-12-10T16:52:39;3.92;;;1.30;;
49139;SDS011;34959;49.310;8.646;2022-12-10T16:55:05;4.05;;;1.30;;
49139;SDS011;34959;49.310;8.646;2022-12-10T16:57:33;1.77;;;1.23;;
49139;SDS011;34959;49.310;8.646;2022-12-10T16:59:58;2.80;;;1.27;;
49139;SDS011;34959;49.310;8.646;2022-12-10T17:02:24;2.25;;;1.40;;
49139;SDS011;34959;49.310;8.646;2022-12-10T17:04:49;2.95;;;1.10;;
49139;SDS011;34959;49.310;8.646;2022-12-10T17:07:15;1.63;;;1.20;;